createdAt,value
2023-03-21T00:01:53.653Z,51.80
2023-03-21T00:04:25.556Z,55.10
2023-03-21T00:06:52.889Z,54.57
2023-03-21T00:09:21.039Z,53.63
2023-03-21T00:11:48.554Z,46.50
2023-03-21T00:14:20.158Z,51.43
2023-03-21T00:16:53.629Z,50.10
2023-03-21T00:19:21.052Z,49.67
2023-03-21T00:22:08.676Z,51.63
2023-03-21T00:24:36.692Z,50.63
2023-03-21T00:27:29.890Z,48.13
2023-03-21T00:29:50.704Z,49.23
2023-03-21T00:32:18.812Z,51.00
2023-03-21T00:34:59.586Z,50.87
2023-03-21T00:37:32.506Z,46.03
2023-03-21T00:39:59.370Z,49.50
2023-03-21T00:42:26.483Z,46.93
2023-03-21T00:44:53.267Z,48.80
2023-03-21T00:47:20.858Z,50.97
2023-03-21T00:49:47.791Z,46.03
2023-03-21T00:52:22.157Z,46.77
2023-03-21T00:54:54.444Z,48.37
2023-03-21T00:57:29.280Z,48.83
2023-03-21T01:00:04.279Z,47.20
2023-03-21T01:02:31.128Z,46.73
2023-03-21T01:04:57.918Z,44.47
2023-03-21T01:07:24.750Z,48.50
2023-03-21T01:09:51.533Z,48.40
2023-03-21T01:12:18.380Z,50.77
2023-03-21T01:14:45.230Z,48.53
2023-03-21T01:17:12.066Z,46.23
2023-03-21T01:19:51.127Z,52.30
2023-03-21T01:22:19.312Z,50.23
2023-03-21T01:24:54.147Z,48.53
2023-03-21T01:27:23.803Z,46.67
2023-03-21T01:29:50.705Z,50.53
2023-03-21T01:32:17.612Z,48.37
2023-03-21T01:34:44.553Z,46.73
2023-03-21T01:37:11.432Z,45.83
2023-03-21T01:39:38.235Z,45.63
2023-03-21T01:42:05.162Z,41.10
2023-03-21T01:44:32.170Z,42.90
2023-03-21T01:47:10.395Z,44.27
2023-03-21T01:49:46.449Z,44.67
2023-03-21T01:52:30.038Z,41.20
2023-03-21T01:55:07.132Z,43.53
2023-03-21T01:57:52.224Z,43.30
2023-03-21T02:00:29.660Z,42.80
2023-03-21T02:03:11.094Z,44.70
2023-03-21T02:05:52.634Z,44.53
2023-03-21T02:08:22.284Z,41.33
2023-03-21T02:10:51.638Z,38.33
2023-03-21T02:13:18.708Z,41.23
2023-03-21T02:16:02.321Z,39.57
2023-03-21T02:18:36.575Z,36.33
2023-03-21T02:21:22.285Z,39.97
2023-03-21T02:24:17.910Z,38.03
2023-03-21T02:27:21.909Z,38.37
2023-03-21T02:30:06.361Z,40.30
2023-03-21T02:32:50.940Z,39.53
2023-03-21T02:35:26.360Z,40.83
2023-03-21T02:38:01.441Z,40.27
2023-03-21T02:40:52.941Z,43.40
2023-03-21T02:43:42.607Z,43.47
2023-03-21T02:46:15.991Z,42.23
2023-03-21T02:49:07.740Z,43.93
2023-03-21T02:51:37.583Z,45.50
2023-03-21T02:56:58.957Z,42.73
2023-03-21T02:59:27.537Z,44.17
2023-03-21T03:01:56.316Z,48.57
2023-03-21T03:04:28.142Z,43.00
2023-03-21T03:07:13.173Z,43.87
2023-03-21T03:10:03.099Z,41.30
2023-03-21T03:12:45.826Z,44.73
2023-03-21T03:15:22.138Z,41.83
2023-03-21T03:18:01.938Z,45.77
2023-03-21T03:20:39.048Z,44.73
2023-03-21T03:23:17.984Z,46.10
2023-03-21T03:25:51.053Z,47.17
2023-03-21T03:28:23.037Z,48.00
2023-03-21T03:31:07.374Z,47.80
2023-03-21T03:33:39.904Z,47.10
2023-03-21T03:36:18.815Z,46.50
2023-03-21T03:38:52.312Z,40.43
2023-03-21T03:41:25.643Z,43.73
2023-03-21T03:43:59.473Z,39.60
2023-03-21T03:46:37.901Z,38.63
2023-03-21T03:49:11.494Z,41.43
2023-03-21T03:51:48.401Z,35.10
2023-03-21T03:54:22.976Z,37.73
2023-03-21T03:56:50.794Z,33.70
2023-03-21T03:59:24.316Z,38.37
2023-03-21T04:01:51.546Z,32.60
2023-03-21T04:04:18.397Z,36.87
2023-03-21T04:06:51.670Z,36.47
2023-03-21T04:09:23.307Z,37.47
2023-03-21T04:11:53.621Z,37.43
2023-03-21T04:14:21.705Z,41.53
2023-03-21T04:16:49.242Z,38.50
2023-03-21T04:19:16.854Z,37.47
2023-03-21T04:21:44.050Z,39.77
2023-03-21T04:24:12.044Z,37.93
2023-03-21T04:26:39.427Z,35.73
2023-03-21T04:29:06.487Z,38.43
2023-03-21T04:31:36.366Z,34.93
2023-03-21T04:34:09.880Z,33.60
2023-03-21T04:36:47.050Z,36.37
2023-03-21T04:39:14.661Z,35.13
2023-03-21T04:41:43.305Z,34.70
2023-03-21T04:44:11.876Z,32.93
2023-03-21T04:46:39.511Z,32.37
2023-03-21T04:49:09.568Z,34.87
2023-03-21T04:51:37.659Z,32.03
2023-03-21T04:54:05.941Z,32.40
2023-03-21T04:56:34.086Z,30.30
2023-03-21T04:59:05.782Z,31.70
2023-03-21T05:01:32.883Z,29.47
2023-03-21T05:04:01.455Z,32.30
2023-03-21T05:06:29.237Z,31.90
2023-03-21T05:09:00.225Z,28.70
2023-03-21T05:11:30.750Z,33.00
2023-03-21T05:13:58.580Z,31.80
2023-03-21T05:16:27.156Z,28.50
2023-03-21T05:18:55.596Z,29.07
2023-03-21T05:21:24.042Z,29.80
2023-03-21T05:23:54.208Z,30.00
2023-03-21T05:26:23.089Z,29.80
2023-03-21T05:28:50.160Z,30.00
2023-03-21T05:31:18.343Z,32.87
2023-03-21T05:33:46.136Z,30.20
2023-03-21T05:36:13.969Z,31.80
2023-03-21T05:38:46.150Z,33.87
2023-03-21T05:41:14.179Z,34.13
2023-03-21T05:43:41.055Z,33.13
2023-03-21T05:46:08.460Z,36.80
2023-03-21T05:48:35.469Z,32.63
2023-03-21T05:51:03.381Z,34.90
2023-03-21T05:53:30.737Z,32.67
2023-03-21T05:55:57.925Z,34.70
2023-03-21T05:58:24.929Z,35.07
2023-03-21T06:00:51.712Z,35.37
2023-03-21T06:03:18.568Z,32.00
2023-03-21T06:05:45.400Z,36.87
2023-03-21T06:08:12.992Z,35.83
2023-03-21T06:10:39.839Z,35.93
2023-03-21T06:13:06.685Z,36.03
2023-03-21T06:15:33.665Z,35.43
2023-03-21T06:18:00.541Z,32.20
2023-03-21T06:20:27.795Z,45.07
2023-03-21T06:22:54.657Z,31.57
2023-03-21T06:25:21.875Z,30.77
2023-03-21T06:27:48.726Z,26.90
2023-03-21T06:30:16.140Z,28.13
2023-03-21T06:32:42.997Z,28.27
2023-03-21T06:35:09.934Z,23.70
2023-03-21T06:37:36.878Z,24.07
2023-03-21T06:40:06.009Z,25.37
2023-03-21T06:42:32.827Z,22.47
2023-03-21T06:44:59.675Z,25.90
2023-03-21T06:47:26.975Z,23.80
2023-03-21T06:49:53.778Z,22.63
2023-03-21T06:52:20.659Z,22.20
2023-03-21T06:54:54.106Z,24.33
2023-03-21T06:57:22.015Z,22.17
2023-03-21T06:59:48.898Z,21.23
2023-03-21T07:02:16.010Z,20.13
2023-03-21T07:04:43.040Z,19.60
2023-03-21T07:07:12.813Z,19.37
2023-03-21T07:09:40.879Z,19.60
2023-03-21T07:12:07.754Z,19.33
2023-03-21T07:14:34.708Z,18.47
2023-03-21T07:17:04.033Z,19.57
2023-03-21T07:19:30.918Z,18.57
2023-03-21T07:21:57.807Z,18.27
2023-03-21T07:24:24.603Z,20.17
2023-03-21T07:26:51.483Z,22.93
2023-03-21T07:29:21.689Z,22.00
2023-03-21T07:31:48.921Z,19.20
2023-03-21T07:34:19.286Z,19.03
2023-03-21T07:36:46.365Z,18.10
2023-03-21T07:39:13.917Z,17.10
2023-03-21T07:41:40.950Z,20.03
2023-03-21T07:44:07.783Z,16.07
2023-03-21T07:46:34.587Z,18.50
2023-03-21T07:49:01.449Z,18.57
2023-03-21T07:51:32.186Z,19.47
2023-03-21T07:53:59.134Z,16.80
2023-03-21T07:56:25.923Z,17.10
2023-03-21T07:58:53.749Z,18.03
2023-03-21T08:01:21.846Z,18.43
2023-03-21T08:03:49.595Z,15.70
2023-03-21T08:06:19.525Z,16.20
2023-03-21T08:08:47.144Z,15.30
2023-03-21T08:11:14.428Z,15.43
2023-03-21T08:13:41.677Z,14.60
2023-03-21T08:16:08.971Z,12.00
2023-03-21T08:18:35.973Z,12.90
2023-03-21T08:21:02.922Z,13.53
2023-03-21T08:23:31.118Z,12.97
2023-03-21T08:25:58.301Z,10.07
2023-03-21T08:28:25.199Z,12.00
2023-03-21T08:30:52.119Z,11.93
2023-03-21T08:33:19.463Z,9.53
2023-03-21T08:35:46.928Z,9.00
2023-03-21T08:38:15.586Z,9.10
2023-03-21T08:40:42.599Z,8.97
2023-03-21T08:43:09.413Z,11.60
2023-03-21T08:45:36.508Z,9.57
2023-03-21T08:48:03.700Z,9.80
2023-03-21T08:50:32.100Z,9.43
2023-03-21T08:52:59.114Z,10.40
2023-03-21T08:55:26.053Z,18.77
2023-03-21T08:57:52.827Z,33.13
2023-03-21T09:00:22.130Z,11.10
2023-03-21T09:02:51.646Z,10.53
2023-03-21T09:05:19.877Z,11.30
2023-03-21T09:07:47.584Z,10.40
2023-03-21T09:10:22.227Z,14.50
2023-03-21T09:12:51.175Z,9.83
2023-03-21T09:15:20.238Z,10.13
2023-03-21T09:17:52.995Z,10.17
2023-03-21T09:20:22.693Z,11.60
2023-03-21T09:22:52.987Z,10.77
2023-03-21T09:25:21.666Z,11.03
2023-03-21T09:27:48.811Z,10.67
2023-03-21T09:30:18.950Z,11.50
2023-03-21T09:32:50.479Z,12.80
2023-03-21T09:35:19.126Z,10.00
2023-03-21T09:37:49.157Z,11.00
2023-03-21T09:40:52.715Z,9.30
2023-03-21T09:43:28.014Z,10.03
2023-03-21T09:46:20.978Z,11.37
2023-03-21T09:49:01.984Z,9.83
2023-03-21T09:51:35.245Z,9.83
2023-03-21T09:54:08.699Z,11.13
2023-03-21T09:56:38.596Z,11.90
2023-03-21T09:59:09.066Z,11.67
2023-03-21T10:01:42.068Z,10.40
2023-03-21T10:04:13.355Z,10.10
2023-03-21T10:06:42.857Z,9.20
2023-03-21T10:09:21.484Z,9.53
2023-03-21T10:11:53.258Z,9.03
2023-03-21T10:14:28.300Z,9.33
2023-03-21T10:17:20.580Z,10.83
2023-03-21T10:19:55.594Z,9.07
2023-03-21T10:22:22.406Z,11.33
2023-03-21T10:24:49.220Z,9.30
2023-03-21T10:27:16.378Z,9.13
2023-03-21T10:29:45.857Z,10.10
2023-03-21T10:32:17.292Z,10.43
2023-03-21T10:35:05.002Z,12.57
2023-03-21T10:37:32.608Z,11.50
2023-03-21T10:39:59.782Z,11.50
2023-03-21T10:42:30.954Z,13.77
2023-03-21T10:44:58.475Z,14.57
2023-03-21T10:47:33.932Z,8.63
2023-03-21T10:50:12.425Z,8.47
2023-03-21T10:52:50.816Z,7.53
2023-03-21T10:55:28.834Z,7.20
2023-03-21T10:58:07.716Z,7.83
2023-03-21T11:00:46.498Z,8.60
2023-03-21T11:03:29.414Z,7.57
2023-03-21T11:06:00.221Z,7.83
2023-03-21T11:08:27.584Z,7.67
2023-03-21T11:10:59.733Z,8.83
2023-03-21T11:13:37.716Z,4.67
2023-03-21T11:16:27.524Z,2.87
2023-03-21T11:19:01.331Z,2.20
2023-03-21T11:21:35.257Z,3.27
2023-03-21T11:24:03.319Z,2.20
2023-03-21T11:26:36.217Z,2.13
2023-03-21T11:29:29.444Z,1.63
2023-03-21T11:32:09.818Z,2.87
2023-03-21T11:34:48.746Z,3.40
2023-03-21T11:37:27.901Z,3.20
2023-03-21T11:39:57.266Z,3.27
2023-03-21T11:42:30.958Z,4.90
2023-03-21T11:45:02.106Z,4.33
2023-03-21T11:47:29.190Z,5.43
2023-03-21T11:50:04.597Z,5.17
2023-03-21T11:52:44.223Z,5.67
2023-03-21T11:55:35.984Z,7.50
2023-03-21T11:58:32.927Z,6.03
2023-03-21T12:01:19.153Z,6.93
2023-03-21T12:04:18.532Z,6.77
2023-03-21T12:07:33.172Z,5.67
2023-03-21T12:10:05.451Z,5.40
2023-03-21T12:12:42.316Z,5.23
2023-03-21T12:15:24.795Z,6.73
2023-03-21T12:18:16.229Z,6.33
2023-03-21T12:20:57.090Z,5.67
2023-03-21T12:23:42.679Z,5.87
2023-03-21T12:26:29.103Z,5.20
2023-03-21T12:29:38.955Z,5.00
2023-03-21T12:32:53.233Z,7.93
2023-03-21T12:36:00.458Z,6.20
2023-03-21T12:39:08.661Z,5.00
2023-03-21T12:42:10.693Z,7.80
2023-03-21T12:44:45.991Z,6.03
2023-03-21T12:47:19.934Z,5.80
2023-03-21T12:49:52.417Z,5.40
2023-03-21T12:52:34.466Z,5.63
2023-03-21T12:55:22.563Z,5.43
2023-03-21T12:57:59.016Z,6.23
2023-03-21T13:00:33.383Z,6.17
2023-03-21T13:03:33.539Z,6.27
2023-03-21T13:06:09.373Z,6.43
2023-03-21T13:09:14.929Z,5.20
2023-03-21T13:11:43.714Z,5.60
2023-03-21T13:14:33.348Z,4.70
2023-03-21T13:17:07.609Z,5.07
2023-03-21T13:19:46.771Z,5.27
2023-03-21T13:22:30.169Z,5.20
2023-03-21T13:25:22.127Z,5.20
2023-03-21T13:28:22.835Z,6.63
2023-03-21T13:33:35.679Z,5.60
2023-03-21T13:36:24.377Z,6.97
2023-03-21T13:38:53.968Z,7.27
2023-03-21T13:41:33.324Z,5.80
2023-03-21T13:44:03.239Z,6.00
2023-03-21T13:46:34.111Z,5.67
2023-03-21T13:49:10.665Z,5.07
2023-03-21T13:51:41.718Z,5.37
2023-03-21T13:54:11.222Z,5.43
2023-03-21T13:56:47.237Z,7.10
2023-03-21T13:59:41.260Z,6.70
2023-03-21T14:02:31.930Z,7.10
2023-03-21T14:05:07.902Z,5.57
2023-03-21T14:07:41.630Z,5.87
2023-03-21T14:10:37.402Z,5.63
2023-03-21T14:13:11.060Z,7.03
2023-03-21T14:15:54.940Z,6.87
2023-03-21T14:18:51.646Z,5.77
2023-03-21T14:21:25.348Z,6.50
2023-03-21T14:24:13.794Z,5.47
2023-03-21T14:29:36.009Z,5.97
2023-03-21T14:32:05.706Z,5.83
2023-03-21T14:34:35.546Z,7.23
2023-03-21T14:37:02.626Z,9.37
2023-03-21T14:39:31.959Z,6.63
2023-03-21T14:42:12.366Z,7.80
2023-03-21T14:44:55.167Z,7.53
2023-03-21T14:47:32.286Z,6.80
2023-03-21T14:50:01.336Z,7.33
2023-03-21T14:52:33.719Z,9.20
2023-03-21T14:55:03.362Z,6.03
2023-03-21T14:57:33.585Z,5.97
2023-03-21T15:00:14.596Z,6.70
2023-03-21T15:02:43.624Z,6.50
2023-03-21T15:05:31.703Z,7.23
2023-03-21T15:08:08.146Z,5.83
2023-03-21T15:10:35.461Z,8.90
2023-03-21T15:13:25.266Z,6.00
2023-03-21T15:15:54.881Z,7.10
2023-03-21T15:18:33.313Z,5.77
2023-03-21T15:21:16.819Z,4.83
2023-03-21T15:23:46.813Z,4.73
2023-03-21T15:26:16.999Z,5.33
2023-03-21T15:28:49.923Z,4.63
2023-03-21T15:31:23.269Z,7.47
2023-03-21T15:33:54.632Z,5.87
2023-03-21T15:36:25.514Z,4.93
2023-03-21T15:38:52.839Z,6.00
2023-03-21T15:41:20.110Z,5.33
2023-03-21T15:43:48.948Z,5.47
2023-03-21T15:46:34.934Z,5.50
2023-03-21T15:49:32.996Z,5.47
2023-03-21T15:52:13.389Z,5.17
2023-03-21T15:54:56.092Z,4.77
2023-03-21T15:57:30.022Z,5.33
2023-03-21T16:00:06.444Z,5.77
2023-03-21T16:02:35.032Z,5.73
2023-03-21T16:05:19.162Z,5.83
2023-03-21T16:07:47.296Z,5.43
2023-03-21T16:10:39.395Z,5.87
2023-03-21T16:13:07.492Z,6.73
2023-03-21T16:15:34.421Z,6.17
2023-03-21T16:18:04.106Z,5.47
2023-03-21T16:20:43.399Z,11.10
2023-03-21T16:23:12.256Z,7.10
2023-03-21T16:25:39.319Z,6.07
2023-03-21T16:28:14.296Z,6.93
2023-03-21T16:30:41.404Z,8.10
2023-03-21T16:33:12.802Z,6.07
2023-03-21T16:35:40.507Z,7.87
2023-03-21T16:38:07.712Z,8.27
2023-03-21T16:40:38.363Z,7.80
2023-03-21T16:43:05.762Z,6.70
2023-03-21T16:45:32.778Z,9.30
2023-03-21T16:48:00.387Z,7.63
2023-03-21T16:50:31.761Z,7.47
2023-03-21T16:52:59.474Z,9.00
2023-03-21T16:55:26.782Z,7.63
2023-03-21T16:57:54.221Z,12.83
2023-03-21T17:00:24.337Z,6.97
2023-03-21T17:02:53.534Z,6.80
2023-03-21T17:05:21.605Z,11.07
2023-03-21T17:07:48.565Z,7.53
2023-03-21T17:10:23.108Z,9.47
2023-03-21T17:12:50.795Z,10.93
2023-03-21T17:15:18.989Z,18.37
2023-03-21T17:17:46.179Z,9.43
2023-03-21T17:20:18.745Z,12.00
2023-03-21T17:22:46.420Z,11.40
2023-03-21T17:25:13.358Z,12.20
2023-03-21T17:27:40.899Z,11.17
2023-03-21T17:30:23.753Z,14.00
2023-03-21T17:32:51.834Z,9.27
2023-03-21T17:35:19.318Z,10.30
2023-03-21T17:37:50.753Z,10.63
2023-03-21T17:40:23.221Z,11.53
2023-03-21T17:42:52.045Z,11.50
2023-03-21T17:45:19.879Z,13.00
2023-03-21T17:47:47.290Z,10.77
2023-03-21T17:50:33.696Z,11.43
2023-03-21T17:53:00.599Z,12.03
2023-03-21T17:55:27.553Z,11.93
2023-03-21T17:57:54.379Z,14.50
2023-03-21T18:00:25.168Z,12.37
2023-03-21T18:02:52.662Z,10.40
2023-03-21T18:05:24.918Z,12.93
2023-03-21T18:10:40.861Z,11.37
2023-03-21T18:13:08.078Z,11.13
2023-03-21T18:15:37.714Z,12.10
2023-03-21T18:18:05.473Z,14.97
2023-03-21T18:23:21.176Z,14.90
2023-03-21T18:25:48.581Z,12.20
2023-03-21T18:28:19.510Z,14.10
2023-03-21T18:33:37.700Z,13.07
2023-03-21T18:36:07.742Z,13.00
2023-03-21T18:38:36.474Z,12.23
2023-03-21T18:41:06.592Z,15.77
2023-03-21T18:46:21.321Z,16.83
2023-03-21T18:48:49.185Z,15.47
2023-03-21T18:51:17.673Z,14.80
2023-03-21T18:53:44.785Z,19.13
2023-03-21T18:56:39.495Z,18.57
2023-03-21T18:58:59.361Z,15.97
2023-03-21T19:01:26.374Z,15.43
2023-03-21T19:04:20.779Z,16.33
2023-03-21T19:06:47.179Z,18.77
2023-03-21T19:09:15.096Z,17.90
2023-03-21T19:11:42.843Z,21.13
2023-03-21T19:14:11.986Z,18.83
2023-03-21T19:17:07.201Z,21.63
2023-03-21T19:19:27.328Z,19.10
2023-03-21T19:21:54.685Z,22.63
2023-03-21T19:24:27.538Z,22.93
2023-03-21T19:26:55.696Z,20.67
2023-03-21T19:29:22.611Z,22.47
2023-03-21T19:31:51.210Z,20.80
2023-03-21T19:34:26.752Z,21.73
2023-03-21T19:36:54.397Z,23.63
2023-03-21T19:39:25.168Z,25.60
2023-03-21T19:41:55.333Z,21.37
2023-03-21T19:44:38.985Z,26.13
2023-03-21T19:47:06.624Z,21.50
2023-03-21T19:49:56.455Z,24.03
2023-03-21T19:52:21.804Z,25.60
2023-03-21T19:54:48.767Z,29.10
2023-03-21T19:57:16.285Z,31.13
2023-03-21T19:59:43.148Z,29.37
2023-03-21T20:02:34.059Z,31.10
2023-03-21T20:04:59.548Z,30.17
2023-03-21T20:07:27.873Z,34.80
2023-03-21T20:09:57.209Z,35.77
2023-03-21T20:12:24.272Z,34.10
2023-03-21T20:14:58.009Z,36.13
2023-03-21T20:17:31.902Z,38.93
2023-03-21T20:19:59.903Z,32.47
2023-03-21T20:22:53.632Z,39.73
2023-03-21T20:25:15.613Z,35.20
2023-03-21T20:27:43.903Z,37.47
2023-03-21T20:30:15.023Z,33.93
2023-03-21T20:32:44.141Z,33.57
2023-03-21T20:35:21.047Z,34.43
2023-03-21T20:38:00.707Z,33.33
2023-03-21T20:40:27.715Z,32.90
2023-03-21T20:43:01.460Z,35.40
2023-03-21T20:45:35.648Z,34.47
2023-03-21T20:48:03.326Z,33.07
2023-03-21T20:50:33.200Z,32.03
2023-03-21T20:53:07.341Z,35.27
2023-03-21T20:55:34.905Z,34.03
2023-03-21T20:58:03.109Z,37.70
2023-03-21T21:00:29.955Z,36.83
2023-03-21T21:02:58.058Z,35.73
2023-03-21T21:05:31.424Z,39.90
2023-03-21T21:08:01.320Z,35.47
2023-03-21T21:10:28.876Z,34.03
2023-03-21T21:12:55.831Z,37.10
2023-03-21T21:15:23.479Z,31.60
2023-03-21T21:18:05.977Z,35.60
2023-03-21T21:20:35.243Z,35.43
2023-03-21T21:23:02.278Z,35.57
2023-03-21T21:25:32.604Z,34.87
2023-03-21T21:28:09.684Z,38.23
2023-03-21T21:30:38.994Z,37.27
2023-03-21T21:33:06.061Z,40.37
2023-03-21T21:35:33.655Z,40.03
2023-03-21T21:38:00.639Z,40.03
2023-03-21T21:40:27.597Z,41.87
2023-03-21T21:42:54.793Z,41.70
2023-03-21T21:45:21.659Z,43.80
2023-03-21T21:47:48.713Z,43.47
2023-03-21T21:50:16.432Z,40.90
2023-03-21T21:52:46.393Z,40.40
2023-03-21T21:55:13.449Z,38.20
2023-03-21T21:57:41.031Z,43.03
2023-03-21T22:00:13.853Z,39.63
2023-03-21T22:02:41.597Z,39.53
2023-03-21T22:05:09.243Z,39.00
2023-03-21T22:07:37.503Z,39.90
2023-03-21T22:10:05.879Z,39.57
2023-03-21T22:12:32.906Z,40.40
2023-03-21T22:14:59.993Z,37.27
2023-03-21T22:17:26.965Z,38.83
2023-03-21T22:20:05.078Z,42.50
2023-03-21T22:22:33.940Z,43.30
2023-03-21T22:25:01.102Z,44.20
2023-03-21T22:27:27.959Z,44.43
2023-03-21T22:29:55.024Z,42.80
2023-03-21T22:32:21.902Z,43.10
2023-03-21T22:34:48.835Z,46.17
2023-03-21T22:37:15.789Z,39.87
2023-03-21T22:39:42.744Z,39.33
2023-03-21T22:42:09.568Z,43.63
2023-03-21T22:44:36.575Z,43.80
2023-03-21T22:47:10.872Z,46.83
2023-03-21T22:49:39.136Z,45.87
2023-03-21T22:52:06.809Z,43.83
2023-03-21T22:54:33.824Z,44.00
2023-03-21T22:57:00.701Z,44.30
2023-03-21T22:59:28.092Z,40.63
2023-03-21T23:01:55.594Z,40.17
2023-03-21T23:04:23.719Z,44.30
2023-03-21T23:06:50.772Z,39.83
2023-03-21T23:09:17.774Z,40.20
2023-03-21T23:11:48.856Z,43.87
2023-03-21T23:14:17.139Z,43.83
2023-03-21T23:16:45.175Z,42.03
2023-03-21T23:19:12.430Z,38.70
2023-03-21T23:21:39.958Z,40.07
2023-03-21T23:24:07.896Z,48.00
2023-03-21T23:26:35.284Z,47.13
2023-03-21T23:29:02.493Z,43.43
2023-03-21T23:31:29.473Z,43.30
2023-03-21T23:33:58.953Z,48.93
2023-03-21T23:36:25.758Z,43.07
2023-03-21T23:38:52.765Z,52.80
2023-03-21T23:41:22.782Z,46.03
2023-03-21T23:43:49.922Z,45.07
2023-03-21T23:46:18.278Z,45.67
2023-03-21T23:48:46.304Z,44.47
2023-03-21T23:51:15.993Z,43.90
2023-03-21T23:53:44.418Z,42.47
2023-03-21T23:56:17.317Z,42.10
2023-03-21T23:58:44.595Z,43.07
